Time;durP1;ratioP1;P1;durP2;ratioP2;P2;SDS_P1;SDS_P2;PMS_P1;PMS_P2;Temp;Humidity;BMP_temperature;BMP_pressure;BME280_temperature;BME280_humidity;BME280_pressure;Samples;Min_cycle;Max_cycle;Signal;HPM_P1;HPM_P2
2023/04/08 00:00:37;;;;;;;7.77;5.20;;;;;;;7.30;100.00;100896.31;5004006;28;20242;-73
2023/04/08 00:03:04;;;;;;;7.60;5.43;;;;;;;7.43;100.00;100890.59;5002998;28;20231;-73
2023/04/08 00:05:30;;;;;;;9.27;6.43;;;;;;;7.47;100.00;100890.75;5009975;28;20198;-73
2023/04/08 00:07:57;;;;;;;8.13;5.83;;;;;;;7.59;100.00;100892.88;4998290;28;20434;-72
2023/04/08 00:10:25;;;;;;;12.03;6.43;;;;;;;7.52;100.00;100893.53;4992089;28;20258;-74
2023/04/08 00:12:51;;;;;;;8.83;5.97;;;;;;;7.49;100.00;100890.78;4991487;28;20515;-72
2023/04/08 00:15:17;;;;;;;9.67;5.90;;;;;;;7.51;100.00;100894.38;5005654;28;20203;-74
2023/04/08 00:17:44;;;;;;;10.30;6.23;;;;;;;7.58;100.00;100901.63;4998452;28;20219;-72
2023/04/08 00:20:11;;;;;;;9.90;6.00;;;;;;;7.66;100.00;100901.91;5006359;28;20226;-73
2023/04/08 00:22:37;;;;;;;9.27;6.00;;;;;;;7.61;100.00;100893.88;4995199;28;20234;-72
2023/04/08 00:25:08;;;;;;;9.97;6.27;;;;;;;7.54;100.00;100898.00;4991334;28;20240;-73
2023/04/08 00:27:34;;;;;;;10.33;5.80;;;;;;;7.49;100.00;100896.97;4999125;28;20202;-74
2023/04/08 00:30:02;;;;;;;9.63;5.87;;;;;;;7.46;100.00;100895.97;4994858;28;20228;-73
2023/04/08 00:32:28;;;;;;;9.23;5.83;;;;;;;7.39;100.00;100900.13;5004539;28;20203;-73
2023/04/08 00:34:55;;;;;;;10.43;6.37;;;;;;;7.40;100.00;100898.41;5001646;28;20215;-72
2023/04/08 00:37:22;;;;;;;11.37;6.87;;;;;;;7.36;100.00;100897.41;5004589;28;20270;-72
2023/04/08 00:39:48;;;;;;;10.30;6.90;;;;;;;7.40;100.00;100894.03;4994049;28;20225;-73
2023/04/08 00:42:15;;;;;;;10.63;6.60;;;;;;;7.55;100.00;100891.00;5001330;28;20204;-73
2023/04/08 00:44:41;;;;;;;11.63;7.47;;;;;;;7.63;100.00;100891.28;4994919;28;20688;-73
2023/04/08 00:47:11;;;;;;;10.93;6.73;;;;;;;7.60;100.00;100894.69;4987059;28;20232;-73
2023/04/08 00:49:38;;;;;;;11.03;6.47;;;;;;;7.63;100.00;100894.81;4996414;28;20258;-73
2023/04/08 00:52:04;;;;;;;9.90;6.20;;;;;;;7.61;100.00;100901.78;4996208;28;20213;-72
2023/04/08 00:54:31;;;;;;;11.33;6.77;;;;;;;7.61;100.00;100900.88;4995157;28;20239;-72
2023/04/08 00:57:00;;;;;;;11.90;6.87;;;;;;;7.59;100.00;100903.44;4996461;28;20251;-73
2023/04/08 00:59:29;;;;;;;13.40;6.93;;;;;;;7.64;100.00;100909.78;5000603;28;20189;-72
2023/04/08 01:02:13;;;;;;;10.77;7.20;;;;;;;7.66;100.00;100907.19;4998633;28;20243;-74
2023/04/08 01:05:05;;;;;;;10.53;6.23;;;;;;;7.67;100.00;100909.00;4996247;28;20259;-72
2023/04/08 01:07:46;;;;;;;12.27;7.37;;;;;;;7.69;100.00;100908.19;4999450;28;20196;-72
2023/04/08 01:10:21;;;;;;;11.60;7.10;;;;;;;7.68;100.00;100913.41;4995705;28;20280;-72
2023/04/08 01:12:52;;;;;;;11.77;6.63;;;;;;;7.72;100.00;100910.94;5005760;28;20201;-73
2023/04/08 01:15:20;;;;;;;11.20;7.27;;;;;;;7.72;100.00;100903.00;5002369;28;20434;-73
2023/04/08 01:17:49;;;;;;;11.43;6.57;;;;;;;7.85;100.00;100905.19;4996053;28;20297;-72
2023/04/08 01:20:16;;;;;;;11.33;6.73;;;;;;;7.84;100.00;100905.16;4999430;28;20252;-74
2023/04/08 01:22:42;;;;;;;11.03;6.73;;;;;;;7.84;100.00;100906.03;5000256;28;20662;-72
2023/04/08 01:25:20;;;;;;;12.70;6.60;;;;;;;7.93;100.00;100905.44;5003594;28;20218;-72
2023/04/08 01:27:48;;;;;;;11.73;6.80;;;;;;;7.96;100.00;100910.81;4998772;28;20200;-74
2023/04/08 01:30:19;;;;;;;10.70;6.33;;;;;;;8.04;100.00;100911.09;4998832;28;20310;-72
2023/04/08 01:32:46;;;;;;;10.33;6.40;;;;;;;8.04;100.00;100900.53;4994050;28;20800;-72
2023/04/08 01:35:14;;;;;;;11.20;6.93;;;;;;;8.02;100.00;100900.47;4999349;28;20287;-74
2023/04/08 01:37:42;;;;;;;10.73;6.57;;;;;;;7.99;100.00;100905.63;4995031;28;20263;-73
2023/04/08 01:40:10;;;;;;;13.03;7.07;;;;;;;7.93;100.00;100905.44;5004536;28;20231;-72
2023/04/08 01:42:37;;;;;;;11.30;7.07;;;;;;;7.96;100.00;100896.72;4998455;28;20236;-72
2023/04/08 01:45:06;;;;;;;10.80;7.17;;;;;;;7.97;100.00;100901.16;4997326;28;20227;-72
2023/04/08 01:47:34;;;;;;;11.90;7.47;;;;;;;7.98;100.00;100898.56;4999138;28;20195;-72
2023/04/08 01:50:02;;;;;;;12.40;7.30;;;;;;;8.10;100.00;100901.63;5001203;28;20274;-72
2023/04/08 01:52:29;;;;;;;13.30;7.73;;;;;;;8.06;100.00;100896.19;5003806;28;20286;-73
2023/04/08 01:54:56;;;;;;;11.93;6.93;;;;;;;8.06;100.00;100901.47;5004798;28;20742;-72
2023/04/08 01:57:26;;;;;;;11.20;7.27;;;;;;;7.99;100.00;100900.34;5009744;28;20207;-72
2023/04/08 01:59:57;;;;;;;14.67;7.67;;;;;;;8.04;100.00;100900.53;4996990;28;20422;-73
2023/04/08 02:02:25;;;;;;;13.13;8.03;;;;;;;8.00;100.00;100904.78;5003651;28;20235;-73
2023/04/08 02:04:53;;;;;;;13.20;7.73;;;;;;;7.97;100.00;100902.03;4997382;28;20204;-72
2023/04/08 02:07:20;;;;;;;12.50;7.23;;;;;;;8.01;100.00;100903.97;5004640;28;20235;-72
2023/04/08 02:09:46;;;;;;;13.40;7.73;;;;;;;7.99;100.00;100902.09;5007602;28;20278;-72
2023/04/08 02:12:13;;;;;;;12.60;7.27;;;;;;;7.95;100.00;100903.75;5004609;28;20204;-72
2023/04/08 02:14:39;;;;;;;12.50;7.53;;;;;;;7.89;100.00;100903.56;4993263;28;20616;-72
2023/04/08 02:17:16;;;;;;;13.07;8.03;;;;;;;7.89;100.00;100905.28;4996447;28;20246;-72
2023/04/08 02:20:01;;;;;;;13.67;7.57;;;;;;;7.99;100.00;100902.09;4999084;28;20262;-72
2023/04/08 02:22:42;;;;;;;14.67;8.13;;;;;;;7.80;100.00;100911.16;4998931;28;20575;-72
2023/04/08 02:25:13;;;;;;;14.33;8.17;;;;;;;7.68;100.00;100909.03;5001216;28;20207;-72
2023/04/08 02:27:41;;;;;;;13.87;8.10;;;;;;;7.64;100.00;100909.78;4999525;28;20192;-72
2023/04/08 02:30:10;;;;;;;13.47;7.47;;;;;;;7.58;100.00;100913.91;4985097;28;20236;-72
2023/04/08 02:32:36;;;;;;;12.43;7.37;;;;;;;7.48;100.00;100910.97;5005362;28;21414;-72
2023/04/08 02:35:04;;;;;;;13.93;7.83;;;;;;;7.42;100.00;100910.78;5008532;28;20233;-72
2023/04/08 02:37:31;;;;;;;13.33;7.93;;;;;;;7.34;100.00;100916.63;5004209;28;20675;-72
2023/04/08 02:39:58;;;;;;;13.00;7.70;;;;;;;7.32;100.00;100913.06;5011830;28;20226;-71
2023/04/08 02:42:24;;;;;;;12.03;7.47;;;;;;;7.27;100.00;100912.00;5001003;28;20331;-73
2023/04/08 02:44:51;;;;;;;13.10;8.10;;;;;;;7.28;100.00;100914.69;4997817;28;20225;-73
2023/04/08 02:47:17;;;;;;;11.67;7.33;;;;;;;7.19;100.00;100909.06;4984343;28;20200;-72
2023/04/08 02:49:43;;;;;;;12.60;7.47;;;;;;;6.99;100.00;100916.28;4998628;28;20223;-71
2023/04/08 02:52:10;;;;;;;12.53;7.57;;;;;;;6.94;100.00;100924.84;5003446;28;20584;-72
2023/04/08 02:54:36;;;;;;;13.27;8.30;;;;;;;6.86;100.00;100920.22;5002867;28;20217;-72
2023/04/08 02:57:02;;;;;;;15.83;8.77;;;;;;;6.84;100.00;100923.63;4997141;28;20570;-71
2023/04/08 02:59:29;;;;;;;12.70;7.77;;;;;;;6.73;100.00;100923.22;5000879;28;20216;-74
2023/04/08 03:01:55;;;;;;;15.77;8.97;;;;;;;6.67;100.00;100927.34;5003633;28;20208;-72
2023/04/08 03:04:22;;;;;;;15.53;8.70;;;;;;;6.54;100.00;100928.63;5005050;28;20204;-71
2023/04/08 03:06:48;;;;;;;15.97;8.53;;;;;;;6.43;100.00;100927.34;5007066;28;20222;-72
2023/04/08 03:09:14;;;;;;;15.80;9.27;;;;;;;6.31;100.00;100934.72;5002102;28;20577;-72
2023/04/08 03:11:41;;;;;;;15.30;8.60;;;;;;;6.18;100.00;100934.25;4996252;28;20692;-72
2023/04/08 03:14:07;;;;;;;13.70;8.63;;;;;;;6.06;100.00;100932.88;4991045;28;20367;-71
2023/04/08 03:16:33;;;;;;;15.33;8.70;;;;;;;5.92;100.00;100927.03;4994766;28;20234;-72
2023/04/08 03:19:00;;;;;;;13.90;8.37;;;;;;;5.84;100.00;100929.31;5007134;28;20221;-72
2023/04/08 03:21:26;;;;;;;14.67;8.83;;;;;;;5.72;100.00;100920.06;5006215;28;20267;-73
2023/04/08 03:23:52;;;;;;;15.73;9.07;;;;;;;5.61;100.00;100927.50;4996145;28;20228;-72
2023/04/08 03:26:19;;;;;;;15.30;9.20;;;;;;;5.46;100.00;100934.72;4996816;28;20620;-72
2023/04/08 03:28:46;;;;;;;16.53;8.57;;;;;;;5.32;100.00;100931.50;4998161;28;20229;-72
2023/04/08 03:31:13;;;;;;;16.10;8.97;;;;;;;5.24;100.00;100940.78;5003659;28;20634;-72
2023/04/08 03:33:39;;;;;;;14.13;8.73;;;;;;;5.16;100.00;100943.06;5006672;28;20200;-72
2023/04/08 03:36:06;;;;;;;16.10;8.77;;;;;;;5.11;100.00;100949.84;4999955;28;20204;-72
2023/04/08 03:38:32;;;;;;;17.00;8.83;;;;;;;5.39;100.00;100935.28;5006028;28;20227;-72
2023/04/08 03:40:59;;;;;;;16.30;9.47;;;;;;;5.68;100.00;100944.41;4996514;28;20223;-72
2023/04/08 03:43:26;;;;;;;18.13;10.27;;;;;;;5.91;100.00;100941.03;4996410;28;20197;-72
2023/04/08 03:45:52;;;;;;;17.30;9.67;;;;;;;5.81;100.00;100950.22;5006356;28;20722;-72
2023/04/08 03:48:19;;;;;;;18.20;10.07;;;;;;;5.74;100.00;100953.44;5005344;28;20193;-72
2023/04/08 03:50:45;;;;;;;15.87;9.30;;;;;;;5.56;100.00;100955.28;4993973;28;20216;-72
2023/04/08 03:53:11;;;;;;;18.70;10.27;;;;;;;5.49;100.00;100950.59;5000626;28;20200;-72
2023/04/08 03:55:38;;;;;;;16.80;9.67;;;;;;;5.38;100.00;100955.41;4985565;28;20255;-72
2023/04/08 03:58:05;;;;;;;16.60;9.90;;;;;;;5.45;100.00;100956.56;4999669;28;20203;-72
2023/04/08 04:00:31;;;;;;;17.50;10.07;;;;;;;5.75;100.00;100954.34;4998619;28;20232;-72
2023/04/08 04:02:58;;;;;;;22.70;11.07;;;;;;;5.70;100.00;100954.16;5001453;28;20239;-71
2023/04/08 04:05:24;;;;;;;19.60;10.77;;;;;;;5.83;100.00;100959.06;5004003;28;20223;-71
2023/04/08 04:07:50;;;;;;;19.27;10.60;;;;;;;5.84;100.00;100957.34;4998262;28;20226;-72
2023/04/08 04:10:17;;;;;;;18.83;10.77;;;;;;;5.92;100.00;100961.22;5002636;28;20212;-72
2023/04/08 04:12:43;;;;;;;18.00;10.50;;;;;;;5.92;100.00;100955.97;5004198;28;20196;-72
2023/04/08 04:15:10;;;;;;;17.57;10.87;;;;;;;5.88;100.00;100964.53;5004295;28;20642;-72
2023/04/08 04:17:37;;;;;;;19.53;10.20;;;;;;;5.86;100.00;100951.31;5005928;28;20208;-72
2023/04/08 04:20:05;;;;;;;16.30;10.10;;;;;;;5.86;100.00;100955.69;4997864;28;20228;-72
2023/04/08 04:22:31;;;;;;;19.27;10.90;;;;;;;5.83;100.00;100963.44;4994995;28;20205;-72
2023/04/08 04:24:57;;;;;;;17.30;9.87;;;;;;;5.74;100.00;100960.44;4993166;28;20469;-72
2023/04/08 04:27:24;;;;;;;17.90;10.30;;;;;;;5.77;100.00;100960.56;5001022;28;20222;-73
2023/04/08 04:29:50;;;;;;;17.83;10.13;;;;;;;5.84;100.00;100966.13;5007410;28;20235;-73
2023/04/08 04:32:18;;;;;;;18.77;10.67;;;;;;;5.84;100.00;100962.59;4997359;28;20193;-72
2023/04/08 04:34:44;;;;;;;18.10;10.87;;;;;;;5.92;100.00;100967.38;4990876;28;20193;-74
2023/04/08 04:37:11;;;;;;;19.30;10.60;;;;;;;5.90;100.00;100966.41;4998319;28;20209;-73
2023/04/08 04:39:37;;;;;;;18.70;11.40;;;;;;;5.87;100.00;100968.88;4993958;28;20714;-72
2023/04/08 04:42:03;;;;;;;20.90;11.50;;;;;;;5.84;100.00;100975.75;4990220;28;20234;-73
2023/04/08 04:44:30;;;;;;;18.13;11.10;;;;;;;5.78;100.00;100978.13;5008166;28;20201;-72
2023/04/08 04:46:56;;;;;;;17.23;10.20;;;;;;;5.82;100.00;100970.41;5001344;28;20210;-73
2023/04/08 04:49:23;;;;;;;19.63;11.47;;;;;;;5.72;100.00;100980.50;4996652;28;20200;-72
2023/04/08 04:51:49;;;;;;;17.63;11.13;;;;;;;5.66;100.00;100976.78;5003127;28;20294;-72
2023/04/08 04:54:15;;;;;;;19.70;11.57;;;;;;;5.53;100.00;100970.91;5001133;28;20241;-72
2023/04/08 04:56:42;;;;;;;17.77;10.70;;;;;;;5.44;100.00;100984.56;4999226;28;20200;-73
2023/04/08 04:59:08;;;;;;;18.37;10.97;;;;;;;5.40;100.00;100980.00;4999092;28;20263;-72
2023/04/08 05:01:34;;;;;;;20.67;11.83;;;;;;;5.40;100.00;100985.25;4997933;28;20704;-72
2023/04/08 05:04:01;;;;;;;17.33;11.20;;;;;;;5.38;100.00;100981.66;4992751;28;20201;-72
2023/04/08 05:06:27;;;;;;;20.97;11.80;;;;;;;5.38;100.00;100991.28;4994137;28;20196;-72
2023/04/08 05:08:54;;;;;;;21.37;11.70;;;;;;;5.40;100.00;100984.38;4997982;28;20193;-72
2023/04/08 05:11:23;;;;;;;18.67;11.57;;;;;;;5.38;100.00;100988.66;5002170;28;20266;-72
2023/04/08 05:13:49;;;;;;;20.50;11.77;;;;;;;5.27;100.00;100989.09;5004035;28;20200;-73
2023/04/08 05:16:15;;;;;;;18.33;11.37;;;;;;;5.27;100.00;100994.34;4993348;28;20617;-72
2023/04/08 05:18:42;;;;;;;19.60;11.37;;;;;;;5.21;100.00;100987.94;5005222;28;20771;-72
2023/04/08 05:21:08;;;;;;;20.23;11.73;;;;;;;5.23;100.00;100987.16;5006796;28;20279;-72
2023/04/08 05:23:34;;;;;;;21.83;12.80;;;;;;;5.43;100.00;100997.63;4995266;28;20246;-72
2023/04/08 05:26:01;;;;;;;21.03;12.17;;;;;;;5.66;100.00;100984.66;5002596;28;20240;-72
2023/04/08 05:28:27;;;;;;;20.47;12.60;;;;;;;5.79;100.00;100996.56;5009017;28;20201;-72
2023/04/08 05:30:54;;;;;;;20.77;12.03;;;;;;;5.85;100.00;100991.56;5006658;28;20266;-73
2023/04/08 05:33:20;;;;;;;20.67;12.07;;;;;;;5.95;100.00;100996.41;5012506;28;20258;-72
2023/04/08 05:35:46;;;;;;;20.20;12.00;;;;;;;6.10;100.00;100998.78;5011054;28;20212;-72
2023/04/08 05:38:13;;;;;;;20.80;12.50;;;;;;;6.25;100.00;100996.78;5007421;28;20227;-72
2023/04/08 05:40:39;;;;;;;22.33;12.40;;;;;;;6.33;100.00;101004.06;5009556;28;20220;-72
2023/04/08 05:43:06;;;;;;;19.47;11.67;;;;;;;6.41;100.00;101011.47;5011482;28;20258;-71
2023/04/08 05:45:32;;;;;;;21.23;12.50;;;;;;;6.50;100.00;101006.56;5004082;28;20197;-73
2023/04/08 05:47:58;;;;;;;18.70;11.77;;;;;;;6.69;100.00;101016.06;4998849;28;20339;-73
2023/04/08 05:50:25;;;;;;;19.67;11.93;;;;;;;6.91;100.00;101008.16;5004769;28;20240;-73
2023/04/08 05:52:51;;;;;;;20.27;12.70;;;;;;;7.25;99.12;101014.69;5008246;28;20202;-71
2023/04/08 05:55:17;;;;;;;19.83;12.83;;;;;;;7.42;97.65;101003.00;4999379;28;20286;-70
2023/04/08 05:57:44;;;;;;;20.80;11.93;;;;;;;7.68;96.33;101010.94;4983149;28;20207;-71
2023/04/08 06:00:10;;;;;;;17.50;11.50;;;;;;;7.62;95.84;101008.09;5003817;28;20220;-70
2023/04/08 06:02:37;;;;;;;22.07;12.50;;;;;;;7.51;96.57;101028.78;5010873;28;20204;-70
2023/04/08 06:05:04;;;;;;;17.67;11.30;;;;;;;7.63;95.95;101028.34;5006908;28;20202;-70
2023/04/08 06:07:32;;;;;;;20.37;12.20;;;;;;;7.69;95.97;101024.19;4989058;28;20199;-72
2023/04/08 06:09:58;;;;;;;21.43;12.40;;;;;;;7.82;95.27;101028.13;5009948;28;20216;-72
2023/04/08 06:12:24;;;;;;;22.77;12.03;;;;;;;7.57;95.95;101034.28;5010579;28;20246;-73
2023/04/08 06:14:55;;;;;;;20.10;12.23;;;;;;;7.55;96.36;101038.59;5011119;28;20234;-73
2023/04/08 06:17:21;;;;;;;21.33;12.17;;;;;;;7.49;95.79;101041.00;5009066;28;20237;-73
2023/04/08 06:19:48;;;;;;;19.63;12.40;;;;;;;7.38;96.52;101039.72;5008993;28;20223;-73
2023/04/08 06:22:14;;;;;;;21.73;12.97;;;;;;;7.44;95.98;101047.84;5010388;28;20242;-72
2023/04/08 06:24:40;;;;;;;19.33;12.13;;;;;;;7.55;95.15;101038.59;5009556;28;20691;-72
2023/04/08 06:27:07;;;;;;;21.57;12.23;;;;;;;7.74;94.22;101038.41;5009740;28;20200;-72
2023/04/08 06:29:33;;;;;;;21.93;13.03;;;;;;;7.76;94.26;101047.28;5011108;28;20279;-72
2023/04/08 06:32:00;;;;;;;22.27;12.20;;;;;;;7.89;93.91;101042.41;5011256;28;20215;-73
2023/04/08 06:34:26;;;;;;;21.00;12.83;;;;;;;8.24;92.18;101044.50;4994309;28;20205;-73
2023/04/08 06:36:52;;;;;;;22.97;13.40;;;;;;;8.10;92.49;101048.44;5007845;28;20716;-73
2023/04/08 06:39:20;;;;;;;20.57;13.27;;;;;;;8.04;92.59;101049.13;5010484;28;20248;-73
2023/04/08 06:41:46;;;;;;;20.60;12.83;;;;;;;8.09;92.83;101042.28;5006340;28;20231;-73
2023/04/08 06:44:13;;;;;;;20.47;13.10;;;;;;;8.22;92.03;101053.22;5004788;28;20210;-73
2023/04/08 06:46:39;;;;;;;20.77;13.03;;;;;;;8.27;91.73;101056.91;5009286;28;20200;-73
2023/04/08 06:49:05;;;;;;;21.13;12.47;;;;;;;8.09;91.61;101054.56;5007148;28;20251;-73
2023/04/08 06:51:32;;;;;;;21.57;13.07;;;;;;;7.91;92.13;101054.81;5008575;28;20288;-73
2023/04/08 06:53:58;;;;;;;23.37;13.33;;;;;;;8.02;92.01;101065.75;5008469;28;20735;-73
2023/04/08 06:56:25;;;;;;;22.00;13.43;;;;;;;7.98;91.67;101056.81;4990604;28;20197;-73
2023/04/08 06:58:52;;;;;;;22.63;13.27;;;;;;;7.89;92.33;101061.78;5010296;28;20211;-73
2023/04/08 07:01:18;;;;;;;19.77;12.03;;;;;;;7.84;92.08;101069.53;5006776;28;20250;-74
2023/04/08 07:03:44;;;;;;;23.00;13.90;;;;;;;7.97;92.26;101064.66;5008829;28;20726;-73
2023/04/08 07:06:11;;;;;;;21.70;13.33;;;;;;;8.11;91.55;101063.44;5009653;28;20207;-74
2023/04/08 07:08:37;;;;;;;23.23;13.07;;;;;;;8.37;90.44;101066.94;5010868;28;20201;-73
2023/04/08 07:11:07;;;;;;;21.63;13.47;;;;;;;8.49;89.49;101072.66;5008141;28;20251;-74
2023/04/08 07:13:33;;;;;;;21.23;13.40;;;;;;;8.71;88.59;101079.50;5008566;28;20664;-74
2023/04/08 07:16:00;;;;;;;20.80;13.50;;;;;;;8.96;87.27;101073.25;5009302;28;20211;-74
2023/04/08 07:18:26;;;;;;;22.97;13.80;;;;;;;9.09;86.70;101084.25;4992725;28;20212;-74
2023/04/08 07:20:53;;;;;;;21.37;12.73;;;;;;;9.08;86.29;101087.72;5009549;28;20230;-74
2023/04/08 07:23:19;;;;;;;22.70;14.23;;;;;;;9.20;85.45;101086.31;5004987;28;20203;-74
2023/04/08 07:25:47;;;;;;;20.57;13.47;;;;;;;9.17;85.15;101081.81;5008535;28;20248;-74
2023/04/08 07:28:13;;;;;;;20.27;12.40;;;;;;;9.31;85.23;101075.22;5009454;28;20516;-74
2023/04/08 07:30:40;;;;;;;20.80;13.17;;;;;;;9.60;84.12;101091.91;5007428;28;20587;-74
2023/04/08 07:33:06;;;;;;;18.77;12.57;;;;;;;9.95;82.08;101081.41;5008836;28;20197;-74
2023/04/08 07:35:32;;;;;;;19.17;12.23;;;;;;;10.13;80.45;101087.22;5007714;28;20671;-74
2023/04/08 07:37:59;;;;;;;19.10;12.70;;;;;;;10.28;80.51;101090.28;5008533;28;20682;-74
2023/04/08 07:40:25;;;;;;;20.27;13.57;;;;;;;10.36;80.20;101096.66;5002682;28;20228;-72
2023/04/08 07:42:52;;;;;;;18.10;12.10;;;;;;;10.47;78.62;101098.72;5006148;28;20204;-74
2023/04/08 07:45:19;;;;;;;20.40;12.60;;;;;;;10.67;77.99;101100.97;5002397;28;20253;-73
2023/04/08 07:47:46;;;;;;;20.03;12.87;;;;;;;10.81;77.15;101097.78;5006970;28;20200;-74
2023/04/08 07:50:12;;;;;;;18.23;12.60;;;;;;;10.85;76.77;101097.88;4997070;28;20214;-73
2023/04/08 07:52:39;;;;;;;17.63;12.33;;;;;;;11.11;75.99;101098.47;4998830;28;20202;-73
2023/04/08 07:55:06;;;;;;;18.27;12.07;;;;;;;11.18;75.02;101097.72;5004789;28;20723;-73
2023/04/08 07:57:32;;;;;;;18.23;12.07;;;;;;;11.13;74.76;101101.16;5003569;28;20205;-74
2023/04/08 07:59:59;;;;;;;18.87;12.43;;;;;;;11.26;75.57;101106.78;5007089;28;20229;-73
2023/04/08 08:02:25;;;;;;;18.47;11.93;;;;;;;11.28;74.83;101105.06;5005488;28;20230;-73
2023/04/08 08:04:52;;;;;;;17.77;11.53;;;;;;;11.15;75.19;101110.03;5007569;28;20210;-74
2023/04/08 08:07:18;;;;;;;19.60;11.83;;;;;;;11.04;76.25;101112.44;5001102;28;20232;-73
2023/04/08 08:09:45;;;;;;;18.17;11.77;;;;;;;11.18;76.24;101111.00;5003644;28;20628;-73
2023/04/08 08:12:11;;;;;;;18.40;11.77;;;;;;;11.23;75.88;101114.66;5001489;28;20675;-74
2023/04/08 08:14:37;;;;;;;20.23;11.70;;;;;;;10.75;77.08;101118.81;4998595;28;20616;-73
2023/04/08 08:17:04;;;;;;;20.10;12.30;;;;;;;10.84;77.70;101119.94;4999853;28;20639;-73
2023/04/08 08:19:30;;;;;;;18.57;11.73;;;;;;;10.92;77.18;101117.47;5001802;28;20310;-73
2023/04/08 08:21:56;;;;;;;18.87;11.73;;;;;;;10.92;77.11;101122.78;5006820;28;20287;-73
2023/04/08 08:24:24;;;;;;;20.50;12.57;;;;;;;10.91;77.76;101123.63;5005612;28;20247;-73
2023/04/08 08:26:53;;;;;;;21.00;12.03;;;;;;;10.93;77.84;101132.50;5004489;28;20193;-73
2023/04/08 08:29:19;;;;;;;19.57;11.70;;;;;;;10.64;78.22;101139.75;5006816;28;20239;-73
2023/04/08 08:31:47;;;;;;;18.00;11.20;;;;;;;10.67;78.54;101132.75;5009329;28;20281;-73
2023/04/08 08:34:14;;;;;;;18.97;11.33;;;;;;;10.73;78.54;101134.66;5008982;28;20303;-74
2023/04/08 08:36:40;;;;;;;18.97;11.73;;;;;;;10.73;77.75;101136.41;5008387;28;20206;-73
2023/04/08 08:39:07;;;;;;;18.33;11.63;;;;;;;11.00;77.95;101134.44;5005763;28;20674;-72
2023/04/08 08:41:35;;;;;;;18.60;11.67;;;;;;;10.80;77.69;101138.34;5004118;28;20576;-73
2023/04/08 08:44:04;;;;;;;18.47;11.00;;;;;;;10.57;78.14;101144.00;5006278;28;20240;-72
2023/04/08 08:46:30;;;;;;;19.47;11.23;;;;;;;10.56;78.22;101151.91;5002117;28;20197;-75
2023/04/08 08:48:57;;;;;;;18.57;11.37;;;;;;;10.49;78.48;101144.66;4984626;28;20209;-73
2023/04/08 08:51:23;;;;;;;18.83;10.70;;;;;;;10.35;78.26;101145.16;4989128;28;20219;-73
2023/04/08 08:53:50;;;;;;;19.97;11.57;;;;;;;10.41;78.89;101149.75;5007766;28;20200;-73
2023/04/08 08:56:16;;;;;;;19.03;11.60;;;;;;;10.38;78.36;101154.94;5003387;28;20204;-73
2023/04/08 08:58:46;;;;;;;19.17;11.73;;;;;;;10.41;79.13;101152.41;5002192;28;20215;-73
2023/04/08 09:01:31;;;;;;;19.40;11.63;;;;;;;10.44;77.48;101156.88;4986055;28;20227;-72
2023/04/08 09:04:08;;;;;;;17.63;11.47;;;;;;;10.45;78.79;101156.03;5001725;28;20232;-72
2023/04/08 09:06:36;;;;;;;17.67;11.17;;;;;;;10.54;77.86;101159.81;5002177;28;20209;-72
2023/04/08 09:09:09;;;;;;;16.40;11.03;;;;;;;10.43;75.54;101171.88;5004952;28;20210;-72
2023/04/08 09:11:39;;;;;;;17.50;11.70;;;;;;;10.30;76.50;101161.78;5007793;28;20220;-72
2023/04/08 09:14:23;;;;;;;17.13;11.30;;;;;;;10.22;76.91;101166.00;5000644;28;20283;-72
2023/04/08 09:16:50;;;;;;;17.83;11.03;;;;;;;10.19;77.63;101163.22;5001502;28;20198;-72
2023/04/08 09:19:18;;;;;;;17.53;11.00;;;;;;;10.17;76.91;101164.94;4995046;28;20694;-73
2023/04/08 09:21:44;;;;;;;20.03;12.17;;;;;;;10.20;77.18;101171.25;4995329;28;20786;-72
2023/04/08 09:24:27;;;;;;;18.83;10.80;;;;;;;10.27;76.99;101180.25;5004350;28;20236;-73
2023/04/08 09:26:55;;;;;;;17.97;11.07;;;;;;;10.33;76.41;101183.06;5001473;28;20201;-71
2023/04/08 09:29:23;;;;;;;18.43;11.57;;;;;;;10.40;76.74;101185.00;5003491;28;20205;-72
2023/04/08 09:31:54;;;;;;;17.03;10.87;;;;;;;10.50;76.61;101179.13;4981380;28;20300;-72
2023/04/08 09:34:22;;;;;;;18.17;11.47;;;;;;;10.45;75.80;101187.81;4998152;28;20220;-72
2023/04/08 09:36:49;;;;;;;16.87;11.03;;;;;;;10.32;76.56;101189.22;5006720;28;20205;-72
2023/04/08 09:39:16;;;;;;;19.37;12.03;;;;;;;10.21;76.55;101185.38;5005278;28;20267;-72
2023/04/08 09:41:43;;;;;;;17.40;11.47;;;;;;;10.27;76.81;101189.09;5008047;28;20299;-72
2023/04/08 09:44:11;;;;;;;15.30;10.60;;;;;;;10.16;75.64;101190.50;5008221;28;20208;-74
2023/04/08 09:46:49;;;;;;;17.00;11.13;;;;;;;10.11;76.23;101183.31;5001319;28;20278;-72
2023/04/08 09:49:25;;;;;;;15.03;9.70;;;;;;;10.08;75.90;101196.44;4998335;28;20661;-72
2023/04/08 09:51:59;;;;;;;15.90;10.73;;;;;;;10.01;77.21;101195.38;5005014;28;20242;-74
2023/04/08 09:54:53;;;;;;;16.00;10.73;;;;;;;10.07;76.75;101189.38;5003324;28;20214;-72
2023/04/08 09:57:51;;;;;;;15.93;10.40;;;;;;;9.98;76.86;101203.22;5001142;28;20196;-72
2023/04/08 10:00:18;;;;;;;15.60;9.50;;;;;;;10.13;75.76;101187.78;5004788;28;20228;-73
2023/04/08 10:02:53;;;;;;;17.33;9.83;;;;;;;10.27;75.77;101193.47;4991676;28;20695;-73
2023/04/08 10:05:21;;;;;;;16.60;10.13;;;;;;;10.36;74.48;101194.63;5006938;28;20206;-72
2023/04/08 10:07:49;;;;;;;13.57;9.97;;;;;;;10.46;73.86;101193.16;4989096;28;20199;-73
2023/04/08 10:10:16;;;;;;;15.90;10.33;;;;;;;10.59;73.30;101194.34;5003952;28;20222;-73
2023/04/08 10:12:42;;;;;;;15.87;10.40;;;;;;;10.74;72.65;101192.09;5002207;28;20204;-72
2023/04/08 10:15:26;;;;;;;15.00;10.87;;;;;;;10.93;72.10;101186.41;5009202;28;20262;-72
2023/04/08 10:18:17;;;;;;;15.20;10.27;;;;;;;11.08;71.82;101191.19;5004434;28;20297;-73
2023/04/08 10:20:45;;;;;;;16.97;11.63;;;;;;;11.32;72.18;101189.97;4998650;28;20243;-74
2023/04/08 10:23:13;;;;;;;14.53;10.17;;;;;;;11.24;70.60;101195.09;5006112;28;20207;-72
2023/04/08 10:25:40;;;;;;;14.47;9.03;;;;;;;11.18;69.72;101193.19;5005748;28;20257;-74
2023/04/08 10:28:10;;;;;;;14.00;9.80;;;;;;;11.14;70.22;101190.41;5004049;28;20204;-73
2023/04/08 10:30:55;;;;;;;14.60;9.73;;;;;;;11.38;69.60;101185.72;5006240;28;20209;-72
2023/04/08 10:33:25;;;;;;;14.67;9.90;;;;;;;11.52;67.79;101180.69;5007175;28;20199;-73
2023/04/08 10:35:59;;;;;;;13.60;9.80;;;;;;;11.46;66.86;101180.56;5007686;28;20207;-71
2023/04/08 10:38:26;;;;;;;13.47;9.20;;;;;;;11.65;67.01;101181.88;5003536;28;20894;-72
2023/04/08 10:40:53;;;;;;;13.97;9.33;;;;;;;12.01;65.61;101187.06;5007219;28;20215;-72
2023/04/08 10:43:19;;;;;;;15.23;10.40;;;;;;;12.22;63.31;101182.22;5001880;28;20270;-73
2023/04/08 10:45:49;;;;;;;14.60;9.93;;;;;;;12.52;63.21;101180.13;5008591;28;20562;-73
2023/04/08 10:48:27;;;;;;;12.93;8.37;;;;;;;12.84;60.67;101172.72;5007800;28;20296;-72
2023/04/08 10:50:56;;;;;;;12.30;8.90;;;;;;;12.92;60.44;101172.84;5009701;28;20216;-73
2023/04/08 10:53:25;;;;;;;12.03;8.23;;;;;;;12.96;58.97;101177.34;5005276;28;20670;-72
2023/04/08 10:55:52;;;;;;;10.87;8.23;;;;;;;13.12;58.88;101174.03;5002992;28;20289;-73
2023/04/08 10:58:19;;;;;;;13.17;8.77;;;;;;;13.52;58.70;101169.34;5010491;28;20262;-72
2023/04/08 11:00:45;;;;;;;11.57;8.13;;;;;;;13.26;58.03;101178.75;5007414;28;20220;-72
2023/04/08 11:03:12;;;;;;;10.63;8.03;;;;;;;13.55;56.07;101173.81;5005850;28;20227;-73
2023/04/08 11:05:41;;;;;;;11.20;7.77;;;;;;;13.36;56.23;101167.34;5000771;28;20385;-73
2023/04/08 11:08:07;;;;;;;11.03;7.83;;;;;;;13.59;54.78;101167.66;5007839;28;20199;-74
2023/04/08 11:10:37;;;;;;;11.33;7.73;;;;;;;13.89;53.35;101159.19;5009446;28;20219;-80
2023/04/08 11:13:08;;;;;;;10.60;7.40;;;;;;;13.93;52.79;101167.22;4991359;28;20206;-81
2023/04/08 11:15:35;;;;;;;10.97;7.20;;;;;;;13.82;52.83;101170.63;4988347;28;20294;-82
2023/04/08 11:18:04;;;;;;;10.17;7.20;;;;;;;13.51;53.36;101175.53;5005184;28;20203;-73